CYQX

Gander International Airport

Gander, Canada
METAR CYQX 200700Z 22010G19KT 20SM SCT045 OVC120 M04/M07 A3026 RMK SC3AC5 SLP257
Observed Flight Rules
Feb-20 @ 07:00 UTC (36 minutes ago) Visual Flight Rules
Wind Visibility Clouds
220° at 10 knots
 Gusting to 19 knots
20 miles
  • Scattered at 4,500' AGL
  • Overcast at 12,000' AGL
Temperatures Readings
Current -4°C / 25°F
Dewpoint -7°C / 19°F
Humidity 80%
Altimeter 30.26" Hg
Pressure 1025.7 hPa
Elevation 151
METAR CYQX 200700Z 22010G19KT 20SM SCT045 OVC120 M04/M07 A3026 RMK SC3AC5 SLP257
Observed Flight Rules
Feb-20 @ 07:00 UTC
(36 minutes ago)
VFR
Wind Visibility
220° at 10 knots
 Gusting to 19 knots
20 miles
Clouds
  • Scattered at 4,500' AGL
  • Overcast at 12,000' AGL
Temperature Dewpoint
-4°C / 25°F -7°C / 19°F
Humidity Altimeter Pressure
80% 30.26" Hg 1025.7 hPa